createdAt,value
2022-12-18T00:01:41.872Z,4.27
2022-12-18T00:04:21.057Z,4.32
2022-12-18T00:06:52.142Z,4.51
2022-12-18T00:09:22.268Z,4.51
2022-12-18T00:11:55.306Z,4.36
2022-12-18T00:14:26.360Z,4.18
2022-12-18T00:16:54.440Z,4.25
2022-12-18T00:19:28.265Z,4.40
2022-12-18T00:21:56.206Z,4.25
2022-12-18T00:24:28.991Z,4.12
2022-12-18T00:27:00.177Z,4.25
2022-12-18T00:29:28.347Z,4.24
2022-12-18T00:31:56.143Z,4.14
2022-12-18T00:34:23.467Z,4.02
2022-12-18T00:36:50.879Z,4.16
2022-12-18T00:39:24.047Z,4.14
2022-12-18T00:41:54.499Z,4.00
2022-12-18T00:44:24.510Z,3.98
2022-12-18T00:46:51.782Z,4.07
2022-12-18T00:49:24.886Z,4.09
2022-12-18T00:51:55.353Z,3.95
2022-12-18T00:54:26.460Z,4.08
2022-12-18T00:57:00.337Z,4.16
2022-12-18T00:59:31.350Z,4.19
2022-12-18T01:01:59.303Z,4.00
2022-12-18T01:04:27.067Z,4.17
2022-12-18T01:06:54.442Z,4.19
2022-12-18T01:09:22.265Z,4.40
2022-12-18T01:11:49.557Z,4.14
2022-12-18T01:14:17.117Z,4.09
2022-12-18T01:16:44.776Z,4.35
2022-12-18T01:19:18.314Z,4.25
2022-12-18T01:21:45.718Z,4.41
2022-12-18T01:24:13.623Z,4.19
2022-12-18T01:26:40.999Z,4.18
2022-12-18T01:29:10.920Z,4.14
2022-12-18T01:31:41.498Z,4.20
2022-12-18T01:34:12.689Z,4.00
2022-12-18T01:36:40.248Z,4.15
2022-12-18T01:39:13.025Z,4.15
2022-12-18T01:41:40.898Z,4.03
2022-12-18T01:45:06.667Z,3.97
2022-12-18T01:47:51.172Z,4.20
2022-12-18T01:50:26.207Z,4.08
2022-12-18T01:53:00.386Z,4.05
2022-12-18T01:55:31.951Z,3.92
2022-12-18T01:58:04.109Z,4.14
2022-12-18T02:00:35.575Z,4.14
2022-12-18T02:03:03.629Z,4.16
2022-12-18T02:05:55.554Z,4.01
2022-12-18T02:08:37.404Z,4.14
2022-12-18T02:11:04.657Z,4.02
2022-12-18T02:13:36.061Z,4.10
2022-12-18T02:16:30.568Z,4.10
2022-12-18T02:19:07.179Z,4.11
2022-12-18T02:22:18.422Z,4.05
2022-12-18T02:25:23.545Z,4.08
2022-12-18T02:27:57.331Z,4.04
2022-12-18T02:30:25.231Z,4.27
2022-12-18T02:32:58.594Z,3.99
2022-12-18T02:35:31.667Z,3.86
2022-12-18T02:37:59.538Z,3.94
2022-12-18T02:40:31.085Z,4.06
2022-12-18T02:43:08.296Z,3.85
2022-12-18T02:45:35.682Z,3.68
2022-12-18T02:48:03.613Z,3.84
2022-12-18T02:50:39.311Z,3.82
2022-12-18T02:53:27.394Z,3.86
2022-12-18T02:56:01.987Z,3.70
2022-12-18T02:58:59.117Z,4.10
2022-12-18T03:01:52.227Z,3.90
2022-12-18T03:04:30.218Z,3.72
2022-12-18T03:07:06.076Z,3.68
2022-12-18T03:09:40.468Z,3.82
2022-12-18T03:12:20.538Z,3.79
2022-12-18T03:15:17.260Z,3.72
2022-12-18T03:18:00.262Z,3.93
2022-12-18T03:20:35.322Z,3.84
2022-12-18T03:23:15.464Z,3.79
2022-12-18T03:25:51.991Z,3.76
2022-12-18T03:28:23.585Z,3.91
2022-12-18T03:30:58.145Z,3.66
2022-12-18T03:33:53.860Z,3.81
2022-12-18T03:36:24.822Z,3.62
2022-12-18T03:38:55.625Z,3.69
2022-12-18T03:41:44.600Z,3.66
2022-12-18T03:44:50.756Z,3.69
2022-12-18T03:47:28.157Z,3.70
2022-12-18T03:50:21.831Z,3.80
2022-12-18T03:53:10.072Z,3.69
2022-12-18T03:55:38.850Z,3.64
2022-12-18T03:58:09.626Z,3.59
2022-12-18T04:00:37.757Z,3.46
2022-12-18T04:03:06.428Z,3.45
2022-12-18T04:05:38.722Z,3.50
2022-12-18T04:08:11.701Z,3.43
2022-12-18T04:10:39.839Z,3.51
2022-12-18T04:13:07.754Z,3.53
2022-12-18T04:15:40.570Z,3.58
2022-12-18T04:18:09.134Z,3.63
2022-12-18T04:20:39.261Z,3.59
2022-12-18T04:23:09.576Z,3.78
2022-12-18T04:25:36.987Z,3.47
2022-12-18T04:28:04.373Z,3.55
2022-12-18T04:30:32.403Z,3.52
2022-12-18T04:32:59.772Z,3.84
2022-12-18T04:35:27.293Z,3.72
2022-12-18T04:37:54.644Z,3.72
2022-12-18T04:40:24.894Z,3.62
2022-12-18T04:42:54.781Z,3.52
2022-12-18T04:45:22.137Z,3.47
2022-12-18T04:47:49.791Z,3.46
2022-12-18T04:50:17.124Z,3.35
2022-12-18T04:52:45.000Z,3.46
2022-12-18T04:55:13.515Z,3.61
2022-12-18T04:58:03.149Z,3.64
2022-12-18T05:00:33.996Z,3.74
2022-12-18T05:03:02.586Z,3.58
2022-12-18T05:05:30.747Z,3.64
2022-12-18T05:08:05.498Z,3.56
2022-12-18T05:10:38.210Z,3.71
2022-12-18T05:13:06.736Z,3.56
2022-12-18T05:15:35.239Z,3.64
2022-12-18T05:18:07.104Z,3.63
2022-12-18T05:20:34.824Z,3.68
2022-12-18T05:23:02.290Z,3.56
2022-12-18T05:25:29.855Z,3.58
2022-12-18T05:27:57.522Z,3.77
2022-12-18T05:30:25.587Z,3.62
2022-12-18T05:32:52.941Z,3.74
2022-12-18T05:35:21.017Z,3.60
2022-12-18T05:37:48.781Z,3.68
2022-12-18T05:40:16.274Z,3.90
2022-12-18T05:42:44.599Z,3.86
2022-12-18T05:45:15.602Z,3.83
2022-12-18T05:47:50.613Z,3.84
2022-12-18T05:50:23.371Z,3.82
2022-12-18T05:52:55.855Z,3.83
2022-12-18T05:55:26.460Z,7.11
2022-12-18T05:57:58.504Z,8.34
2022-12-18T06:00:29.076Z,8.48
2022-12-18T06:02:59.914Z,9.16
2022-12-18T06:05:27.910Z,8.74
2022-12-18T06:07:55.889Z,9.14
2022-12-18T06:10:23.915Z,7.98
2022-12-18T06:12:51.934Z,7.10
2022-12-18T06:15:19.253Z,6.52
2022-12-18T06:17:55.117Z,6.06
2022-12-18T06:20:29.107Z,6.25
2022-12-18T06:23:03.079Z,5.96
2022-12-18T06:25:30.477Z,5.55
2022-12-18T06:28:00.737Z,5.63
2022-12-18T06:30:29.363Z,5.33
2022-12-18T06:32:59.628Z,5.70
2022-12-18T06:35:36.118Z,5.44
2022-12-18T06:38:08.034Z,6.49
2022-12-18T06:40:40.524Z,6.86
2022-12-18T06:43:36.602Z,5.46
2022-12-18T06:46:26.727Z,4.62
2022-12-18T06:49:14.085Z,4.31
2022-12-18T06:52:01.085Z,4.32
2022-12-18T06:54:48.193Z,4.18
2022-12-18T06:57:19.372Z,4.24
2022-12-18T06:59:49.701Z,4.10
2022-12-18T07:02:25.945Z,4.25
2022-12-18T07:04:56.881Z,4.28
2022-12-18T07:07:27.201Z,4.39
2022-12-18T07:09:58.137Z,4.86
2022-12-18T07:12:28.827Z,5.26
2022-12-18T07:14:57.060Z,5.79
2022-12-18T07:17:30.237Z,6.00
2022-12-18T07:20:03.815Z,5.60
2022-12-18T07:22:31.721Z,5.61
2022-12-18T07:25:00.281Z,5.16
2022-12-18T07:27:35.668Z,4.99
2022-12-18T07:30:16.496Z,5.00
2022-12-18T07:32:52.020Z,5.06
2022-12-18T07:35:25.119Z,5.05
2022-12-18T07:37:53.934Z,4.87
2022-12-18T07:40:24.540Z,4.85
2022-12-18T07:42:58.976Z,4.91
2022-12-18T07:45:26.336Z,5.11
2022-12-18T07:48:00.156Z,5.03
2022-12-18T07:50:32.640Z,5.12
2022-12-18T07:53:02.873Z,5.21
2022-12-18T07:55:51.820Z,5.51
2022-12-18T07:58:27.849Z,6.36
2022-12-18T08:00:55.771Z,6.75
2022-12-18T08:03:26.193Z,6.89
2022-12-18T08:05:59.686Z,6.63
2022-12-18T08:08:31.726Z,6.28
2022-12-18T08:11:01.825Z,6.47
2022-12-18T08:13:34.615Z,7.14
2022-12-18T08:16:07.505Z,7.58
2022-12-18T08:18:41.297Z,7.48
2022-12-18T08:21:14.099Z,8.02
2022-12-18T08:23:45.899Z,8.18
2022-12-18T08:26:17.796Z,7.69
2022-12-18T08:28:54.689Z,8.83
2022-12-18T08:31:26.186Z,8.07
2022-12-18T08:34:00.107Z,7.42
2022-12-18T08:36:33.724Z,7.09
2022-12-18T08:39:04.386Z,6.70
2022-12-18T08:41:31.647Z,8.07
2022-12-18T08:46:55.518Z,9.29
2022-12-18T08:49:22.877Z,7.89
2022-12-18T08:51:58.213Z,7.66
2022-12-18T08:54:32.011Z,7.41
2022-12-18T08:57:02.473Z,7.06
2022-12-18T08:59:33.220Z,6.72
2022-12-18T09:02:05.726Z,6.65
2022-12-18T09:04:36.166Z,6.34
2022-12-18T09:07:06.211Z,6.16
2022-12-18T09:09:39.391Z,5.96
2022-12-18T09:12:09.300Z,6.06
2022-12-18T09:14:45.939Z,6.07
2022-12-18T09:17:20.066Z,6.12
2022-12-18T09:19:50.836Z,5.83
2022-12-18T09:22:21.864Z,6.68
2022-12-18T09:24:55.976Z,6.76
2022-12-18T09:27:29.078Z,6.97
2022-12-18T09:30:05.547Z,7.09
2022-12-18T09:32:42.289Z,7.19
2022-12-18T09:35:12.702Z,7.33
2022-12-18T09:37:42.719Z,7.09
2022-12-18T09:40:20.680Z,6.91
2022-12-18T09:42:56.754Z,7.21
2022-12-18T09:45:25.158Z,6.88
2022-12-18T09:47:54.816Z,7.01
2022-12-18T09:50:36.617Z,6.72
2022-12-18T09:53:13.294Z,7.17
2022-12-18T09:55:46.095Z,7.03
2022-12-18T09:58:25.440Z,7.14
2022-12-18T10:00:59.067Z,6.96
2022-12-18T10:03:35.949Z,7.22
2022-12-18T10:06:19.496Z,7.37
2022-12-18T10:09:29.186Z,6.92
2022-12-18T10:12:08.019Z,7.09
2022-12-18T10:14:57.985Z,7.34
2022-12-18T10:17:50.933Z,7.32
2022-12-18T10:20:48.543Z,7.03
2022-12-18T10:23:37.561Z,7.44
2022-12-18T10:26:10.449Z,7.22
2022-12-18T10:28:41.300Z,7.18
2022-12-18T10:31:24.556Z,7.18
2022-12-18T10:33:58.193Z,7.68
2022-12-18T10:36:29.089Z,7.78
2022-12-18T10:39:23.947Z,8.05
2022-12-18T10:42:12.609Z,7.83
2022-12-18T10:44:46.615Z,7.92
2022-12-18T10:47:19.711Z,7.61
2022-12-18T10:49:55.545Z,7.60
2022-12-18T10:52:38.637Z,7.52
2022-12-18T10:55:20.415Z,7.37
2022-12-18T10:58:13.970Z,7.18
2022-12-18T11:00:45.023Z,6.95
2022-12-18T11:03:47.755Z,7.02
2022-12-18T11:06:22.691Z,7.02
2022-12-18T11:09:08.002Z,6.98
2022-12-18T11:11:52.700Z,7.08
2022-12-18T11:14:46.811Z,7.12
2022-12-18T11:17:28.388Z,7.18
2022-12-18T11:20:05.515Z,7.10
2022-12-18T11:22:38.286Z,7.14
2022-12-18T11:25:33.217Z,7.08
2022-12-18T11:28:23.046Z,6.98
2022-12-18T11:30:50.360Z,6.81
2022-12-18T11:33:22.766Z,6.94
2022-12-18T11:36:09.057Z,7.04
2022-12-18T11:38:43.594Z,7.15
2022-12-18T11:41:24.979Z,7.25
2022-12-18T11:43:59.668Z,7.11
2022-12-18T11:46:52.147Z,7.07
2022-12-18T11:49:31.734Z,7.07
2022-12-18T11:52:05.545Z,8.36
2022-12-18T11:54:38.921Z,7.58
2022-12-18T11:57:20.487Z,7.40
2022-12-18T11:59:58.229Z,7.06
2022-12-18T12:03:09.827Z,6.94
2022-12-18T12:06:03.795Z,6.84
2022-12-18T12:08:43.096Z,6.80
2022-12-18T12:11:18.879Z,6.90
2022-12-18T12:14:14.687Z,6.97
2022-12-18T12:17:23.465Z,6.71
2022-12-18T12:20:12.375Z,6.78
2022-12-18T12:22:50.954Z,6.79
2022-12-18T12:25:21.409Z,7.05
2022-12-18T12:28:06.976Z,6.95
2022-12-18T12:31:12.869Z,6.78
2022-12-18T12:33:49.936Z,6.86
2022-12-18T12:36:23.031Z,6.91
2022-12-18T12:38:56.732Z,7.00
2022-12-18T12:41:32.477Z,6.89
2022-12-18T12:44:14.279Z,6.86
2022-12-18T12:46:43.344Z,6.41
2022-12-18T12:49:16.789Z,6.29
2022-12-18T12:51:57.105Z,6.40
2022-12-18T12:54:33.522Z,6.31
2022-12-18T12:57:24.687Z,5.95
2022-12-18T13:00:13.243Z,6.19
2022-12-18T13:02:40.795Z,6.20
2022-12-18T13:05:23.268Z,6.17
2022-12-18T13:08:23.603Z,6.26
2022-12-18T13:10:51.500Z,5.84
2022-12-18T13:13:24.304Z,5.86
2022-12-18T13:16:10.566Z,5.77
2022-12-18T13:18:50.653Z,5.72
2022-12-18T13:21:27.758Z,5.74
2022-12-18T13:24:17.519Z,5.64
2022-12-18T13:26:45.838Z,5.37
2022-12-18T13:29:44.083Z,5.46
2022-12-18T13:32:25.896Z,5.45
2022-12-18T13:35:18.340Z,5.39
2022-12-18T13:37:54.534Z,5.35
2022-12-18T13:40:48.648Z,5.23
2022-12-18T13:43:18.781Z,5.28
2022-12-18T13:46:26.863Z,5.28
2022-12-18T13:49:39.919Z,5.25
2022-12-18T13:52:40.462Z,5.25
2022-12-18T13:55:18.897Z,5.36
2022-12-18T13:57:45.982Z,5.30
2022-12-18T14:00:32.137Z,5.26
2022-12-18T14:03:21.892Z,5.28
2022-12-18T14:05:55.863Z,5.23
2022-12-18T14:08:31.216Z,5.23
2022-12-18T14:11:06.490Z,5.16
2022-12-18T14:13:43.063Z,5.14
2022-12-18T14:16:17.588Z,5.24
2022-12-18T14:19:01.508Z,5.16
2022-12-18T14:21:51.580Z,5.18
2022-12-18T14:24:23.373Z,5.09
2022-12-18T14:27:13.642Z,4.99
2022-12-18T14:29:46.753Z,5.04
2022-12-18T14:32:21.465Z,5.11
2022-12-18T14:34:57.533Z,4.95
2022-12-18T14:37:26.529Z,5.00
2022-12-18T14:40:13.508Z,4.92
2022-12-18T14:42:47.078Z,5.03
2022-12-18T14:45:51.718Z,4.85
2022-12-18T14:48:24.181Z,4.93
2022-12-18T14:51:04.725Z,4.67
2022-12-18T14:53:40.981Z,4.81
2022-12-18T14:56:24.945Z,4.71
2022-12-18T14:59:06.470Z,4.68
2022-12-18T15:01:38.257Z,4.76
2022-12-18T15:04:25.558Z,4.73
2022-12-18T15:07:05.616Z,4.70
2022-12-18T15:09:36.512Z,4.63
2022-12-18T15:12:20.721Z,4.58
2022-12-18T15:14:51.593Z,4.54
2022-12-18T15:17:25.761Z,4.38
2022-12-18T15:20:10.953Z,4.50
2022-12-18T15:22:43.865Z,4.55
2022-12-18T15:25:29.505Z,4.56
2022-12-18T15:28:04.169Z,4.28
2022-12-18T15:30:35.540Z,4.36
2022-12-18T15:33:26.489Z,4.47
2022-12-18T15:36:05.632Z,4.48
2022-12-18T15:38:35.734Z,4.39
2022-12-18T15:41:20.116Z,4.51
2022-12-18T15:43:55.857Z,4.48
2022-12-18T15:46:27.408Z,4.33
2022-12-18T15:49:02.344Z,4.27
2022-12-18T15:51:34.777Z,4.45
2022-12-18T15:54:10.285Z,4.40
2022-12-18T15:56:40.255Z,4.24
2022-12-18T15:59:16.502Z,4.31
2022-12-18T16:01:48.112Z,5.16
2022-12-18T16:04:20.572Z,4.75
2022-12-18T16:09:43.915Z,4.17
2022-12-18T16:12:22.294Z,3.95
2022-12-18T16:14:57.355Z,4.02
2022-12-18T16:17:31.077Z,3.95
2022-12-18T16:20:01.900Z,3.92
2022-12-18T16:22:32.501Z,4.21
2022-12-18T16:25:03.188Z,4.15
2022-12-18T16:27:31.956Z,4.11
2022-12-18T16:30:04.063Z,3.78
2022-12-18T16:32:31.471Z,3.68
2022-12-18T16:35:03.424Z,3.85
2022-12-18T16:37:33.525Z,3.84
2022-12-18T16:40:00.709Z,3.85
2022-12-18T16:42:28.541Z,3.69
2022-12-18T16:44:59.908Z,3.84
2022-12-18T16:47:27.503Z,3.82
2022-12-18T16:50:00.089Z,3.70
2022-12-18T16:52:33.801Z,3.58
2022-12-18T16:55:06.369Z,3.72
2022-12-18T16:57:40.558Z,3.64
2022-12-18T17:00:12.455Z,3.59
2022-12-18T17:02:48.868Z,3.45
2022-12-18T17:05:23.671Z,3.59
2022-12-18T17:07:54.367Z,3.56
2022-12-18T17:10:28.569Z,3.54
2022-12-18T17:13:02.339Z,3.58
2022-12-18T17:15:41.831Z,3.74
2022-12-18T17:18:15.381Z,3.71
2022-12-18T17:20:48.356Z,3.74
2022-12-18T17:23:18.304Z,3.62
2022-12-18T17:25:49.537Z,3.62
2022-12-18T17:28:22.455Z,3.58
2022-12-18T17:30:54.032Z,3.56
2022-12-18T17:33:25.221Z,3.81
2022-12-18T17:35:52.405Z,3.83
2022-12-18T17:38:30.483Z,3.61
2022-12-18T17:41:09.550Z,3.58
2022-12-18T17:43:37.758Z,3.64
2022-12-18T17:46:14.705Z,3.78
2022-12-18T17:48:45.016Z,3.73
2022-12-18T17:51:12.992Z,3.53
2022-12-18T17:53:43.306Z,3.75
2022-12-18T17:56:16.495Z,3.50
2022-12-18T17:58:44.163Z,3.60
2022-12-18T18:01:16.530Z,3.59
2022-12-18T18:03:44.705Z,3.54
2022-12-18T18:06:12.554Z,3.44
2022-12-18T18:08:39.670Z,3.44
2022-12-18T18:11:15.075Z,3.52
2022-12-18T18:13:48.840Z,3.56
2022-12-18T18:16:16.267Z,3.62
2022-12-18T18:18:44.614Z,4.74
2022-12-18T18:21:18.117Z,4.80
2022-12-18T18:23:45.867Z,3.91
2022-12-18T18:26:15.212Z,3.89
2022-12-18T18:28:42.476Z,3.83
2022-12-18T18:31:11.571Z,3.70
2022-12-18T18:33:39.167Z,3.57
2022-12-18T18:36:10.672Z,3.61
2022-12-18T18:38:38.097Z,3.62
2022-12-18T18:41:06.359Z,3.43
2022-12-18T18:43:34.173Z,3.64
2022-12-18T18:46:03.445Z,3.70
2022-12-18T18:48:39.431Z,3.79
2022-12-18T18:51:14.686Z,3.54
2022-12-18T18:53:51.197Z,3.58
2022-12-18T18:59:13.512Z,3.41
2022-12-18T19:01:40.786Z,3.33
2022-12-18T19:04:08.328Z,3.30
2022-12-18T19:06:35.481Z,3.24
2022-12-18T19:09:04.139Z,3.17
2022-12-18T19:11:38.527Z,3.08
2022-12-18T19:14:19.345Z,3.26
2022-12-18T19:16:50.578Z,3.41
2022-12-18T19:19:17.969Z,3.58
2022-12-18T19:21:45.519Z,3.52
2022-12-18T19:24:12.634Z,3.43
2022-12-18T19:26:42.314Z,3.68
2022-12-18T19:29:11.610Z,3.49
2022-12-18T19:31:38.887Z,3.38
2022-12-18T19:34:07.418Z,3.26
2022-12-18T19:36:39.563Z,3.37
2022-12-18T19:39:16.714Z,3.44
2022-12-18T19:41:44.933Z,3.27
2022-12-18T19:44:14.317Z,3.30
2022-12-18T19:46:42.307Z,3.35
2022-12-18T19:49:10.985Z,3.16
2022-12-18T19:51:41.671Z,3.26
2022-12-18T19:54:13.266Z,3.45
2022-12-18T19:56:44.425Z,3.47
2022-12-18T19:59:14.476Z,3.22
2022-12-18T20:01:42.067Z,3.33
2022-12-18T20:04:09.580Z,3.36
2022-12-18T20:06:47.979Z,3.39
2022-12-18T20:09:27.153Z,3.13
2022-12-18T20:11:57.284Z,3.20
2022-12-18T20:14:27.269Z,3.06
2022-12-18T20:16:56.115Z,3.21
2022-12-18T20:19:28.057Z,3.25
2022-12-18T20:22:00.499Z,3.10
2022-12-18T20:24:27.824Z,3.04
2022-12-18T20:27:16.101Z,3.15
2022-12-18T20:29:54.118Z,3.15
2022-12-18T20:32:26.880Z,2.98
2022-12-18T20:34:57.337Z,3.11
2022-12-18T20:37:32.148Z,2.92
2022-12-18T20:42:58.267Z,3.04
2022-12-18T20:45:29.373Z,3.21
2022-12-18T20:47:59.308Z,3.07
2022-12-18T20:50:26.804Z,2.82
2022-12-18T20:53:02.344Z,2.77
2022-12-18T20:55:33.449Z,3.00
2022-12-18T20:58:07.095Z,2.90
2022-12-18T21:00:36.882Z,2.94
2022-12-18T21:03:07.258Z,2.85
2022-12-18T21:05:43.665Z,3.02
2022-12-18T21:08:11.179Z,2.94
2022-12-18T21:10:43.383Z,2.89
2022-12-18T21:13:14.742Z,2.93
2022-12-18T21:15:46.867Z,2.91
2022-12-18T21:18:17.862Z,2.66
2022-12-18T21:20:49.410Z,2.60
2022-12-18T21:23:17.340Z,2.57
2022-12-18T21:25:51.370Z,2.84
2022-12-18T21:28:23.155Z,2.70
2022-12-18T21:30:50.477Z,2.61
2022-12-18T21:33:20.694Z,2.69
2022-12-18T21:35:48.375Z,2.74
2022-12-18T21:38:21.287Z,2.55
2022-12-18T21:40:54.413Z,2.43
2022-12-18T21:43:30.209Z,2.42
2022-12-18T21:46:00.243Z,2.76
2022-12-18T21:48:34.047Z,2.58
2022-12-18T21:51:06.051Z,2.41
2022-12-18T21:53:38.465Z,2.42
2022-12-18T21:56:09.655Z,2.47
2022-12-18T21:58:55.787Z,2.56
2022-12-18T22:01:37.353Z,2.60
2022-12-18T22:04:08.228Z,2.52
2022-12-18T22:06:45.934Z,2.73
2022-12-18T22:09:22.974Z,2.58
2022-12-18T22:11:58.168Z,2.49
2022-12-18T22:14:26.849Z,2.51
2022-12-18T22:17:03.357Z,2.77
2022-12-18T22:19:41.019Z,2.66
2022-12-18T22:22:32.137Z,2.60
2022-12-18T22:25:03.221Z,2.50
2022-12-18T22:27:37.194Z,2.69
2022-12-18T22:30:11.278Z,2.39
2022-12-18T22:32:47.543Z,2.47
2022-12-18T22:35:21.314Z,2.81
2022-12-18T22:37:53.396Z,2.60
2022-12-18T22:40:27.834Z,2.42
2022-12-18T22:43:06.763Z,2.41
2022-12-18T22:45:36.303Z,2.59
2022-12-18T22:48:11.269Z,2.45
2022-12-18T22:50:43.713Z,2.49
2022-12-18T22:53:16.630Z,2.39
2022-12-18T22:55:49.057Z,2.47
2022-12-18T22:58:19.503Z,2.53
2022-12-18T23:00:53.919Z,2.32
2022-12-18T23:03:23.928Z,2.50
2022-12-18T23:05:51.507Z,2.62
2022-12-18T23:08:23.575Z,2.73
2022-12-18T23:10:53.320Z,2.56
2022-12-18T23:13:21.088Z,2.39
2022-12-18T23:15:52.836Z,2.54
2022-12-18T23:18:32.045Z,2.59
2022-12-18T23:21:22.330Z,2.46
2022-12-18T23:23:55.881Z,2.51
2022-12-18T23:26:29.964Z,2.61
2022-12-18T23:29:01.751Z,2.50
2022-12-18T23:31:38.856Z,2.34
2022-12-18T23:34:16.722Z,2.53
2022-12-18T23:36:52.016Z,2.50
2022-12-18T23:39:29.459Z,2.59
2022-12-18T23:42:04.157Z,2.48
2022-12-18T23:44:39.969Z,2.54
2022-12-18T23:47:10.550Z,2.64
2022-12-18T23:49:38.207Z,2.46
2022-12-18T23:52:09.393Z,2.30
2022-12-18T23:54:36.949Z,2.43
2022-12-18T23:57:04.254Z,2.68
2022-12-18T23:59:35.671Z,2.61
